sensor_id;sensor_type;location;lat;lon;timestamp;P1;durP1;ratioP1;P2;durP2;ratioP2
29362;SDS011;16349;53.672;10.014;2023-07-29T00:02:12;3.90;;;3.50;;
29362;SDS011;16349;53.672;10.014;2023-07-29T00:04:38;3.97;;;3.67;;
29362;SDS011;16349;53.672;10.014;2023-07-29T00:07:06;3.67;;;3.37;;
29362;SDS011;16349;53.672;10.014;2023-07-29T00:09:33;3.90;;;3.60;;
29362;SDS011;16349;53.672;10.014;2023-07-29T00:12:00;3.53;;;3.33;;
29362;SDS011;16349;53.672;10.014;2023-07-29T00:14:27;4.50;;;4.10;;
29362;SDS011;16349;53.672;10.014;2023-07-29T00:16:54;4.77;;;3.60;;
29362;SDS011;16349;53.672;10.014;2023-07-29T00:19:20;4.23;;;3.83;;
29362;SDS011;16349;53.672;10.014;2023-07-29T00:21:48;3.73;;;3.43;;
29362;SDS011;16349;53.672;10.014;2023-07-29T00:24:16;4.17;;;3.70;;
29362;SDS011;16349;53.672;10.014;2023-07-29T00:26:43;4.20;;;3.77;;
29362;SDS011;16349;53.672;10.014;2023-07-29T00:29:10;4.20;;;3.90;;
29362;SDS011;16349;53.672;10.014;2023-07-29T00:31:37;4.20;;;3.80;;
29362;SDS011;16349;53.672;10.014;2023-07-29T00:34:04;4.33;;;3.50;;
29362;SDS011;16349;53.672;10.014;2023-07-29T00:36:30;4.50;;;3.63;;
29362;SDS011;16349;53.672;10.014;2023-07-29T00:38:57;4.27;;;3.77;;
29362;SDS011;16349;53.672;10.014;2023-07-29T00:41:26;3.77;;;3.50;;
29362;SDS011;16349;53.672;10.014;2023-07-29T00:43:52;6.33;;;4.30;;
29362;SDS011;16349;53.672;10.014;2023-07-29T00:46:20;5.20;;;4.33;;
29362;SDS011;16349;53.672;10.014;2023-07-29T00:48:47;4.00;;;3.70;;
29362;SDS011;16349;53.672;10.014;2023-07-29T00:51:14;4.70;;;4.33;;
29362;SDS011;16349;53.672;10.014;2023-07-29T00:53:41;4.40;;;4.00;;
29362;SDS011;16349;53.672;10.014;2023-07-29T00:56:08;4.67;;;4.20;;
29362;SDS011;16349;53.672;10.014;2023-07-29T00:58:38;4.93;;;4.50;;
29362;SDS011;16349;53.672;10.014;2023-07-29T01:01:05;4.73;;;4.33;;
29362;SDS011;16349;53.672;10.014;2023-07-29T01:03:32;3.97;;;3.67;;
29362;SDS011;16349;53.672;10.014;2023-07-29T01:06:08;7.20;;;4.27;;
29362;SDS011;16349;53.672;10.014;2023-07-29T01:08:46;4.03;;;3.73;;
29362;SDS011;16349;53.672;10.014;2023-07-29T01:11:23;4.70;;;4.27;;
29362;SDS011;16349;53.672;10.014;2023-07-29T01:14:01;5.43;;;4.07;;
29362;SDS011;16349;53.672;10.014;2023-07-29T01:16:37;4.47;;;4.17;;
29362;SDS011;16349;53.672;10.014;2023-07-29T01:19:07;4.77;;;4.23;;
29362;SDS011;16349;53.672;10.014;2023-07-29T01:21:48;6.03;;;3.73;;
29362;SDS011;16349;53.672;10.014;2023-07-29T01:24:16;4.50;;;4.10;;
29362;SDS011;16349;53.672;10.014;2023-07-29T01:26:43;5.80;;;3.80;;
29362;SDS011;16349;53.672;10.014;2023-07-29T01:29:10;4.87;;;3.97;;
29362;SDS011;16349;53.672;10.014;2023-07-29T01:31:38;4.17;;;3.87;;
29362;SDS011;16349;53.672;10.014;2023-07-29T01:34:10;4.00;;;3.60;;
29362;SDS011;16349;53.672;10.014;2023-07-29T01:36:42;4.00;;;3.60;;
29362;SDS011;16349;53.672;10.014;2023-07-29T01:39:11;4.60;;;3.53;;
29362;SDS011;16349;53.672;10.014;2023-07-29T01:41:41;3.97;;;3.57;;
29362;SDS011;16349;53.672;10.014;2023-07-29T01:44:11;4.07;;;3.77;;
29362;SDS011;16349;53.672;10.014;2023-07-29T01:46:38;4.20;;;3.83;;
29362;SDS011;16349;53.672;10.014;2023-07-29T01:49:06;3.70;;;3.40;;
29362;SDS011;16349;53.672;10.014;2023-07-29T01:51:32;4.33;;;3.93;;
29362;SDS011;16349;53.672;10.014;2023-07-29T01:53:59;5.07;;;3.80;;
29362;SDS011;16349;53.672;10.014;2023-07-29T01:56:26;3.80;;;3.50;;
29362;SDS011;16349;53.672;10.014;2023-07-29T01:58:56;4.80;;;4.40;;
29362;SDS011;16349;53.672;10.014;2023-07-29T02:01:23;4.50;;;4.20;;
29362;SDS011;16349;53.672;10.014;2023-07-29T02:03:50;4.80;;;4.40;;
29362;SDS011;16349;53.672;10.014;2023-07-29T02:06:20;4.50;;;4.13;;
29362;SDS011;16349;53.672;10.014;2023-07-29T02:08:47;4.67;;;4.37;;
29362;SDS011;16349;53.672;10.014;2023-07-29T02:11:14;4.87;;;4.47;;
29362;SDS011;16349;53.672;10.014;2023-07-29T02:13:41;7.00;;;4.00;;
29362;SDS011;16349;53.672;10.014;2023-07-29T02:16:10;4.67;;;4.27;;
29362;SDS011;16349;53.672;10.014;2023-07-29T02:18:37;4.67;;;4.27;;
29362;SDS011;16349;53.672;10.014;2023-07-29T02:21:04;6.67;;;4.27;;
29362;SDS011;16349;53.672;10.014;2023-07-29T02:23:31;5.93;;;4.10;;
29362;SDS011;16349;53.672;10.014;2023-07-29T02:25:58;5.77;;;4.70;;
29362;SDS011;16349;53.672;10.014;2023-07-29T02:28:25;4.87;;;4.47;;
29362;SDS011;16349;53.672;10.014;2023-07-29T02:33:40;5.77;;;5.00;;
29362;SDS011;16349;53.672;10.014;2023-07-29T02:36:07;5.63;;;5.13;;
29362;SDS011;16349;53.672;10.014;2023-07-29T02:38:34;6.47;;;5.53;;
29362;SDS011;16349;53.672;10.014;2023-07-29T02:41:01;7.23;;;5.47;;
29362;SDS011;16349;53.672;10.014;2023-07-29T02:43:28;6.33;;;5.83;;
29362;SDS011;16349;53.672;10.014;2023-07-29T02:45:55;6.13;;;5.63;;
29362;SDS011;16349;53.672;10.014;2023-07-29T02:48:23;6.23;;;5.63;;
29362;SDS011;16349;53.672;10.014;2023-07-29T02:50:50;6.83;;;6.13;;
29362;SDS011;16349;53.672;10.014;2023-07-29T02:53:17;6.77;;;6.23;;
29362;SDS011;16349;53.672;10.014;2023-07-29T02:55:44;6.60;;;6.03;;
29362;SDS011;16349;53.672;10.014;2023-07-29T02:58:11;6.83;;;6.23;;
29362;SDS011;16349;53.672;10.014;2023-07-29T03:00:38;6.43;;;5.83;;
29362;SDS011;16349;53.672;10.014;2023-07-29T03:03:06;7.30;;;6.60;;
29362;SDS011;16349;53.672;10.014;2023-07-29T03:05:35;6.50;;;6.00;;
29362;SDS011;16349;53.672;10.014;2023-07-29T03:08:03;7.13;;;6.50;;
29362;SDS011;16349;53.672;10.014;2023-07-29T03:10:30;8.27;;;7.47;;
29362;SDS011;16349;53.672;10.014;2023-07-29T03:12:57;8.37;;;7.60;;
29362;SDS011;16349;53.672;10.014;2023-07-29T03:15:24;7.33;;;6.63;;
29362;SDS011;16349;53.672;10.014;2023-07-29T03:17:51;8.53;;;7.00;;
29362;SDS011;16349;53.672;10.014;2023-07-29T03:20:18;7.87;;;7.03;;
29362;SDS011;16349;53.672;10.014;2023-07-29T03:22:47;8.13;;;7.47;;
29362;SDS011;16349;53.672;10.014;2023-07-29T03:25:14;8.50;;;7.70;;
29362;SDS011;16349;53.672;10.014;2023-07-29T03:27:41;9.30;;;8.50;;
29362;SDS011;16349;53.672;10.014;2023-07-29T03:30:08;9.30;;;8.40;;
29362;SDS011;16349;53.672;10.014;2023-07-29T03:32:35;9.10;;;8.30;;
29362;SDS011;16349;53.672;10.014;2023-07-29T03:35:04;8.23;;;7.53;;
29362;SDS011;16349;53.672;10.014;2023-07-29T03:37:31;8.80;;;8.07;;
29362;SDS011;16349;53.672;10.014;2023-07-29T03:39:59;8.87;;;8.07;;
29362;SDS011;16349;53.672;10.014;2023-07-29T03:42:26;8.67;;;7.90;;
29362;SDS011;16349;53.672;10.014;2023-07-29T03:44:53;11.33;;;9.37;;
29362;SDS011;16349;53.672;10.014;2023-07-29T03:47:20;9.40;;;8.60;;
29362;SDS011;16349;53.672;10.014;2023-07-29T03:49:47;9.87;;;8.87;;
29362;SDS011;16349;53.672;10.014;2023-07-29T03:52:17;9.77;;;8.87;;
29362;SDS011;16349;53.672;10.014;2023-07-29T03:54:44;10.10;;;9.10;;
29362;SDS011;16349;53.672;10.014;2023-07-29T03:57:15;10.00;;;9.10;;
29362;SDS011;16349;53.672;10.014;2023-07-29T03:59:44;10.60;;;9.63;;
29362;SDS011;16349;53.672;10.014;2023-07-29T04:02:11;11.00;;;10.00;;
29362;SDS011;16349;53.672;10.014;2023-07-29T04:04:38;11.97;;;10.87;;
29362;SDS011;16349;53.672;10.014;2023-07-29T04:07:07;13.23;;;10.93;;
29362;SDS011;16349;53.672;10.014;2023-07-29T04:09:34;11.50;;;10.07;;
29362;SDS011;16349;53.672;10.014;2023-07-29T04:12:02;11.37;;;10.37;;
29362;SDS011;16349;53.672;10.014;2023-07-29T04:14:35;12.23;;;10.93;;
29362;SDS011;16349;53.672;10.014;2023-07-29T04:17:02;12.03;;;10.83;;
29362;SDS011;16349;53.672;10.014;2023-07-29T04:19:29;11.90;;;10.80;;
29362;SDS011;16349;53.672;10.014;2023-07-29T04:21:56;12.83;;;11.20;;
29362;SDS011;16349;53.672;10.014;2023-07-29T04:24:23;10.53;;;9.50;;
29362;SDS011;16349;53.672;10.014;2023-07-29T04:26:50;11.83;;;10.73;;
29362;SDS011;16349;53.672;10.014;2023-07-29T04:29:17;12.03;;;10.77;;
29362;SDS011;16349;53.672;10.014;2023-07-29T04:31:45;14.37;;;11.80;;
29362;SDS011;16349;53.672;10.014;2023-07-29T04:34:13;13.83;;;12.00;;
29362;SDS011;16349;53.672;10.014;2023-07-29T04:36:40;14.70;;;13.27;;
29362;SDS011;16349;53.672;10.014;2023-07-29T04:39:07;15.73;;;14.20;;
29362;SDS011;16349;53.672;10.014;2023-07-29T04:41:34;14.93;;;13.33;;
29362;SDS011;16349;53.672;10.014;2023-07-29T04:44:01;18.17;;;13.93;;
29362;SDS011;16349;53.672;10.014;2023-07-29T04:46:28;18.20;;;14.27;;
29362;SDS011;16349;53.672;10.014;2023-07-29T04:48:56;16.57;;;14.67;;
29362;SDS011;16349;53.672;10.014;2023-07-29T04:51:23;19.40;;;15.87;;
29362;SDS011;16349;53.672;10.014;2023-07-29T04:53:50;18.77;;;15.93;;
29362;SDS011;16349;53.672;10.014;2023-07-29T04:56:17;19.60;;;15.77;;
29362;SDS011;16349;53.672;10.014;2023-07-29T04:58:44;19.47;;;17.30;;
29362;SDS011;16349;53.672;10.014;2023-07-29T05:01:11;20.17;;;17.10;;
29362;SDS011;16349;53.672;10.014;2023-07-29T05:03:39;20.17;;;16.77;;
29362;SDS011;16349;53.672;10.014;2023-07-29T05:06:07;20.63;;;17.50;;
29362;SDS011;16349;53.672;10.014;2023-07-29T05:08:34;21.73;;;18.10;;
29362;SDS011;16349;53.672;10.014;2023-07-29T05:11:01;23.47;;;16.97;;
29362;SDS011;16349;53.672;10.014;2023-07-29T05:13:28;22.20;;;17.87;;
29362;SDS011;16349;53.672;10.014;2023-07-29T05:15:55;21.30;;;16.93;;
29362;SDS011;16349;53.672;10.014;2023-07-29T05:18:22;23.77;;;17.40;;
29362;SDS011;16349;53.672;10.014;2023-07-29T05:20:49;22.23;;;17.40;;
29362;SDS011;16349;53.672;10.014;2023-07-29T05:23:17;25.30;;;17.77;;
29362;SDS011;16349;53.672;10.014;2023-07-29T05:25:44;25.53;;;17.97;;
29362;SDS011;16349;53.672;10.014;2023-07-29T05:28:11;22.23;;;18.33;;
29362;SDS011;16349;53.672;10.014;2023-07-29T05:30:38;24.87;;;18.07;;
29362;SDS011;16349;53.672;10.014;2023-07-29T05:33:06;24.53;;;18.10;;
29362;SDS011;16349;53.672;10.014;2023-07-29T05:35:33;23.57;;;18.40;;
29362;SDS011;16349;53.672;10.014;2023-07-29T05:38:00;21.43;;;16.73;;
29362;SDS011;16349;53.672;10.014;2023-07-29T05:40:30;21.77;;;17.70;;
29362;SDS011;16349;53.672;10.014;2023-07-29T05:42:57;21.20;;;16.50;;
29362;SDS011;16349;53.672;10.014;2023-07-29T05:45:23;22.13;;;17.03;;
29362;SDS011;16349;53.672;10.014;2023-07-29T05:47:50;26.17;;;17.03;;
29362;SDS011;16349;53.672;10.014;2023-07-29T05:50:19;18.90;;;16.87;;
29362;SDS011;16349;53.672;10.014;2023-07-29T05:52:46;21.53;;;17.33;;
29362;SDS011;16349;53.672;10.014;2023-07-29T05:55:13;21.73;;;17.53;;
29362;SDS011;16349;53.672;10.014;2023-07-29T05:57:41;19.10;;;16.20;;
29362;SDS011;16349;53.672;10.014;2023-07-29T06:00:08;19.90;;;16.37;;
29362;SDS011;16349;53.672;10.014;2023-07-29T06:02:38;20.17;;;16.70;;
29362;SDS011;16349;53.672;10.014;2023-07-29T06:05:07;20.57;;;16.70;;
29362;SDS011;16349;53.672;10.014;2023-07-29T06:07:34;20.53;;;16.57;;
29362;SDS011;16349;53.672;10.014;2023-07-29T06:10:01;19.90;;;15.93;;
29362;SDS011;16349;53.672;10.014;2023-07-29T06:12:27;19.00;;;16.50;;
29362;SDS011;16349;53.672;10.014;2023-07-29T06:14:57;20.30;;;15.93;;
29362;SDS011;16349;53.672;10.014;2023-07-29T06:17:24;20.90;;;16.77;;
29362;SDS011;16349;53.672;10.014;2023-07-29T06:19:51;22.70;;;16.47;;
29362;SDS011;16349;53.672;10.014;2023-07-29T06:22:18;20.43;;;16.90;;
29362;SDS011;16349;53.672;10.014;2023-07-29T06:24:45;20.13;;;16.90;;
29362;SDS011;16349;53.672;10.014;2023-07-29T06:27:12;19.13;;;16.80;;
29362;SDS011;16349;53.672;10.014;2023-07-29T06:29:39;19.42;;;16.90;;
29362;SDS011;16349;53.672;10.014;2023-07-29T06:32:07;21.47;;;17.37;;
29362;SDS011;16349;53.672;10.014;2023-07-29T06:34:34;18.93;;;16.67;;
29362;SDS011;16349;53.672;10.014;2023-07-29T06:37:01;18.23;;;15.83;;
29362;SDS011;16349;53.672;10.014;2023-07-29T06:39:28;20.10;;;15.88;;
29362;SDS011;16349;53.672;10.014;2023-07-29T06:41:54;17.73;;;15.70;;
29362;SDS011;16349;53.672;10.014;2023-07-29T06:44:21;21.10;;;15.97;;
29362;SDS011;16349;53.672;10.014;2023-07-29T06:46:48;18.30;;;16.25;;
29362;SDS011;16349;53.672;10.014;2023-07-29T06:49:16;22.03;;;15.57;;
29362;SDS011;16349;53.672;10.014;2023-07-29T06:51:43;17.15;;;15.35;;
29362;SDS011;16349;53.672;10.014;2023-07-29T06:54:10;16.98;;;14.98;;
29362;SDS011;16349;53.672;10.014;2023-07-29T06:56:37;18.97;;;15.17;;
29362;SDS011;16349;53.672;10.014;2023-07-29T06:59:04;18.73;;;14.63;;
29362;SDS011;16349;53.672;10.014;2023-07-29T07:01:31;18.15;;;15.15;;
29362;SDS011;16349;53.672;10.014;2023-07-29T07:03:58;18.08;;;16.00;;
29362;SDS011;16349;53.672;10.014;2023-07-29T07:06:26;18.63;;;15.43;;
29362;SDS011;16349;53.672;10.014;2023-07-29T07:08:53;17.17;;;15.43;;
29362;SDS011;16349;53.672;10.014;2023-07-29T07:11:19;17.87;;;15.27;;
29362;SDS011;16349;53.672;10.014;2023-07-29T07:13:46;19.03;;;15.60;;
29362;SDS011;16349;53.672;10.014;2023-07-29T07:16:13;16.92;;;15.07;;
29362;SDS011;16349;53.672;10.014;2023-07-29T07:18:40;16.20;;;14.43;;
29362;SDS011;16349;53.672;10.014;2023-07-29T07:21:07;16.25;;;14.52;;
29362;SDS011;16349;53.672;10.014;2023-07-29T07:23:35;17.55;;;14.88;;
29362;SDS011;16349;53.672;10.014;2023-07-29T07:26:02;16.27;;;14.52;;
29362;SDS011;16349;53.672;10.014;2023-07-29T07:28:29;19.52;;;15.88;;
29362;SDS011;16349;53.672;10.014;2023-07-29T07:30:56;17.67;;;15.85;;
29362;SDS011;16349;53.672;10.014;2023-07-29T07:33:22;18.35;;;14.90;;
29362;SDS011;16349;53.672;10.014;2023-07-29T07:35:49;16.00;;;14.30;;
29362;SDS011;16349;53.672;10.014;2023-07-29T07:38:16;18.92;;;14.88;;
29362;SDS011;16349;53.672;10.014;2023-07-29T07:40:46;17.55;;;15.50;;
29362;SDS011;16349;53.672;10.014;2023-07-29T07:43:19;18.17;;;15.00;;
29362;SDS011;16349;53.672;10.014;2023-07-29T07:45:46;15.80;;;14.15;;
29362;SDS011;16349;53.672;10.014;2023-07-29T07:48:13;17.60;;;15.75;;
29362;SDS011;16349;53.672;10.014;2023-07-29T07:50:41;18.40;;;16.57;;
29362;SDS011;16349;53.672;10.014;2023-07-29T07:53:08;18.93;;;16.43;;
29362;SDS011;16349;53.672;10.014;2023-07-29T07:55:36;19.60;;;16.40;;
29362;SDS011;16349;53.672;10.014;2023-07-29T07:58:04;18.40;;;15.68;;
29362;SDS011;16349;53.672;10.014;2023-07-29T08:00:31;19.73;;;16.48;;
29362;SDS011;16349;53.672;10.014;2023-07-29T08:02:58;20.42;;;15.82;;
29362;SDS011;16349;53.672;10.014;2023-07-29T08:05:25;17.83;;;16.02;;
29362;SDS011;16349;53.672;10.014;2023-07-29T08:07:52;19.40;;;16.85;;
29362;SDS011;16349;53.672;10.014;2023-07-29T08:10:18;19.07;;;16.60;;
29362;SDS011;16349;53.672;10.014;2023-07-29T08:12:45;17.52;;;14.90;;
29362;SDS011;16349;53.672;10.014;2023-07-29T08:15:13;18.23;;;15.57;;
29362;SDS011;16349;53.672;10.014;2023-07-29T08:17:40;16.40;;;14.57;;
29362;SDS011;16349;53.672;10.014;2023-07-29T08:20:08;16.85;;;15.10;;
29362;SDS011;16349;53.672;10.014;2023-07-29T08:22:35;16.52;;;14.25;;
29362;SDS011;16349;53.672;10.014;2023-07-29T08:25:02;17.58;;;13.80;;
29362;SDS011;16349;53.672;10.014;2023-07-29T08:27:29;15.48;;;13.68;;
29362;SDS011;16349;53.672;10.014;2023-07-29T08:29:56;16.33;;;14.30;;
29362;SDS011;16349;53.672;10.014;2023-07-29T08:32:24;15.15;;;13.65;;
29362;SDS011;16349;53.672;10.014;2023-07-29T08:34:51;17.73;;;14.73;;
29362;SDS011;16349;53.672;10.014;2023-07-29T08:37:18;17.35;;;14.45;;
29362;SDS011;16349;53.672;10.014;2023-07-29T08:39:45;19.98;;;15.32;;
29362;SDS011;16349;53.672;10.014;2023-07-29T08:42:12;17.95;;;15.27;;
29362;SDS011;16349;53.672;10.014;2023-07-29T08:44:41;17.48;;;15.32;;
29362;SDS011;16349;53.672;10.014;2023-07-29T08:47:09;19.83;;;16.05;;
29362;SDS011;16349;53.672;10.014;2023-07-29T08:49:39;19.13;;;15.95;;
29362;SDS011;16349;53.672;10.014;2023-07-29T08:52:07;19.20;;;17.15;;
29362;SDS011;16349;53.672;10.014;2023-07-29T08:54:35;18.92;;;16.23;;
29362;SDS011;16349;53.672;10.014;2023-07-29T08:57:03;17.88;;;15.77;;
29362;SDS011;16349;53.672;10.014;2023-07-29T08:59:30;22.90;;;17.40;;
29362;SDS011;16349;53.672;10.014;2023-07-29T09:01:58;21.27;;;16.77;;
29362;SDS011;16349;53.672;10.014;2023-07-29T09:04:25;19.13;;;16.38;;
29362;SDS011;16349;53.672;10.014;2023-07-29T09:06:55;23.27;;;17.73;;
29362;SDS011;16349;53.672;10.014;2023-07-29T09:09:22;17.70;;;15.20;;
29362;SDS011;16349;53.672;10.014;2023-07-29T09:11:51;20.13;;;16.40;;
29362;SDS011;16349;53.672;10.014;2023-07-29T09:14:19;19.00;;;16.75;;
29362;SDS011;16349;53.672;10.014;2023-07-29T09:16:46;21.25;;;16.88;;
29362;SDS011;16349;53.672;10.014;2023-07-29T09:19:13;18.15;;;15.73;;
29362;SDS011;16349;53.672;10.014;2023-07-29T09:21:40;18.10;;;15.25;;
29362;SDS011;16349;53.672;10.014;2023-07-29T09:24:09;17.90;;;15.95;;
29362;SDS011;16349;53.672;10.014;2023-07-29T09:26:36;17.20;;;14.38;;
29362;SDS011;16349;53.672;10.014;2023-07-29T09:29:03;16.90;;;15.18;;
29362;SDS011;16349;53.672;10.014;2023-07-29T09:31:30;16.58;;;14.45;;
29362;SDS011;16349;53.672;10.014;2023-07-29T09:33:57;16.48;;;14.05;;
29362;SDS011;16349;53.672;10.014;2023-07-29T09:36:25;14.77;;;13.23;;
29362;SDS011;16349;53.672;10.014;2023-07-29T09:38:52;15.13;;;12.75;;
29362;SDS011;16349;53.672;10.014;2023-07-29T09:41:23;15.73;;;13.82;;
29362;SDS011;16349;53.672;10.014;2023-07-29T09:43:54;15.93;;;12.52;;
29362;SDS011;16349;53.672;10.014;2023-07-29T09:46:23;14.77;;;12.10;;
29362;SDS011;16349;53.672;10.014;2023-07-29T09:48:52;15.40;;;12.20;;
29362;SDS011;16349;53.672;10.014;2023-07-29T09:51:19;13.30;;;11.90;;
29362;SDS011;16349;53.672;10.014;2023-07-29T09:53:47;14.00;;;12.13;;
29362;SDS011;16349;53.672;10.014;2023-07-29T09:56:15;11.50;;;10.30;;
29362;SDS011;16349;53.672;10.014;2023-07-29T09:58:44;12.65;;;10.25;;
29362;SDS011;16349;53.672;10.014;2023-07-29T10:01:11;10.20;;;9.25;;
29362;SDS011;16349;53.672;10.014;2023-07-29T10:03:39;10.57;;;9.50;;
29362;SDS011;16349;53.672;10.014;2023-07-29T10:06:06;8.98;;;8.18;;
29362;SDS011;16349;53.672;10.014;2023-07-29T10:08:33;9.15;;;8.25;;
29362;SDS011;16349;53.672;10.014;2023-07-29T10:11:03;8.38;;;7.60;;
29362;SDS011;16349;53.672;10.014;2023-07-29T10:13:31;7.75;;;7.05;;
29362;SDS011;16349;53.672;10.014;2023-07-29T10:16:00;6.65;;;6.07;;
29362;SDS011;16349;53.672;10.014;2023-07-29T10:18:28;7.32;;;6.18;;
29362;SDS011;16349;53.672;10.014;2023-07-29T10:20:58;7.57;;;6.60;;
29362;SDS011;16349;53.672;10.014;2023-07-29T10:23:26;5.10;;;4.70;;
29362;SDS011;16349;53.672;10.014;2023-07-29T10:25:55;5.40;;;4.90;;
29362;SDS011;16349;53.672;10.014;2023-07-29T10:28:28;3.95;;;3.75;;
29362;SDS011;16349;53.672;10.014;2023-07-29T10:30:56;4.45;;;4.05;;
29362;SDS011;16349;53.672;10.014;2023-07-29T10:33:25;4.18;;;3.78;;
29362;SDS011;16349;53.672;10.014;2023-07-29T10:35:52;4.88;;;4.38;;
29362;SDS011;16349;53.672;10.014;2023-07-29T10:38:20;4.60;;;4.20;;
29362;SDS011;16349;53.672;10.014;2023-07-29T10:40:50;4.63;;;4.20;;
29362;SDS011;16349;53.672;10.014;2023-07-29T10:43:24;4.63;;;4.30;;
29362;SDS011;16349;53.672;10.014;2023-07-29T10:45:51;4.20;;;3.80;;
29362;SDS011;16349;53.672;10.014;2023-07-29T10:51:22;3.72;;;3.45;;
29362;SDS011;16349;53.672;10.014;2023-07-29T10:53:51;4.20;;;3.90;;
29362;SDS011;16349;53.672;10.014;2023-07-29T10:56:24;4.00;;;3.70;;
29362;SDS011;16349;53.672;10.014;2023-07-29T10:58:54;3.83;;;3.50;;
29362;SDS011;16349;53.672;10.014;2023-07-29T11:01:29;3.58;;;3.05;;
29362;SDS011;16349;53.672;10.014;2023-07-29T11:07:01;2.95;;;2.70;;
29362;SDS011;16349;53.672;10.014;2023-07-29T11:09:55;2.70;;;2.50;;
29362;SDS011;16349;53.672;10.014;2023-07-29T11:15:23;2.55;;;2.35;;
29362;SDS011;16349;53.672;10.014;2023-07-29T11:17:51;2.85;;;2.55;;
29362;SDS011;16349;53.672;10.014;2023-07-29T11:20:21;2.70;;;2.50;;
29362;SDS011;16349;53.672;10.014;2023-07-29T11:22:52;2.40;;;2.30;;
29362;SDS011;16349;53.672;10.014;2023-07-29T11:25:19;4.30;;;2.40;;
29362;SDS011;16349;53.672;10.014;2023-07-29T11:27:47;2.67;;;2.50;;
29362;SDS011;16349;53.672;10.014;2023-07-29T11:30:15;2.15;;;1.90;;
29362;SDS011;16349;53.672;10.014;2023-07-29T11:32:42;2.45;;;2.25;;
29362;SDS011;16349;53.672;10.014;2023-07-29T11:35:11;2.47;;;2.38;;
29362;SDS011;16349;53.672;10.014;2023-07-29T11:37:42;3.33;;;3.03;;
29362;SDS011;16349;53.672;10.014;2023-07-29T11:40:13;3.97;;;3.67;;
29362;SDS011;16349;53.672;10.014;2023-07-29T11:42:40;3.92;;;3.63;;
29362;SDS011;16349;53.672;10.014;2023-07-29T11:45:07;3.00;;;2.78;;
29362;SDS011;16349;53.672;10.014;2023-07-29T11:47:36;3.08;;;2.88;;
29362;SDS011;16349;53.672;10.014;2023-07-29T11:50:03;2.72;;;2.35;;
29362;SDS011;16349;53.672;10.014;2023-07-29T11:52:31;3.05;;;2.85;;
29362;SDS011;16349;53.672;10.014;2023-07-29T11:54:59;3.20;;;3.00;;
29362;SDS011;16349;53.672;10.014;2023-07-29T11:57:27;3.28;;;2.97;;
29362;SDS011;16349;53.672;10.014;2023-07-29T11:59:54;3.33;;;3.10;;
29362;SDS011;16349;53.672;10.014;2023-07-29T12:02:21;3.75;;;2.50;;
29362;SDS011;16349;53.672;10.014;2023-07-29T12:04:49;3.10;;;2.90;;
29362;SDS011;16349;53.672;10.014;2023-07-29T12:07:17;3.28;;;3.03;;
29362;SDS011;16349;53.672;10.014;2023-07-29T12:09:45;2.67;;;2.47;;
29362;SDS011;16349;53.672;10.014;2023-07-29T12:12:14;2.97;;;2.25;;
29362;SDS011;16349;53.672;10.014;2023-07-29T12:14:43;2.97;;;2.72;;
29362;SDS011;16349;53.672;10.014;2023-07-29T12:17:11;3.10;;;2.90;;
29362;SDS011;16349;53.672;10.014;2023-07-29T12:19:39;2.78;;;2.58;;
29362;SDS011;16349;53.672;10.014;2023-07-29T12:22:07;2.30;;;2.20;;
29362;SDS011;16349;53.672;10.014;2023-07-29T12:24:35;2.60;;;2.13;;
29362;SDS011;16349;53.672;10.014;2023-07-29T12:27:04;2.40;;;2.20;;
29362;SDS011;16349;53.672;10.014;2023-07-29T12:29:39;2.78;;;2.20;;
29362;SDS011;16349;53.672;10.014;2023-07-29T12:32:06;2.15;;;1.95;;
29362;SDS011;16349;53.672;10.014;2023-07-29T12:34:34;1.80;;;1.70;;
29362;SDS011;16349;53.672;10.014;2023-07-29T12:37:03;3.10;;;1.95;;
29362;SDS011;16349;53.672;10.014;2023-07-29T12:39:32;1.63;;;1.50;;
29362;SDS011;16349;53.672;10.014;2023-07-29T12:42:00;1.70;;;1.60;;
29362;SDS011;16349;53.672;10.014;2023-07-29T12:44:29;1.65;;;1.55;;
29362;SDS011;16349;53.672;10.014;2023-07-29T12:47:00;1.73;;;1.63;;
29362;SDS011;16349;53.672;10.014;2023-07-29T12:49:27;2.95;;;1.98;;
29362;SDS011;16349;53.672;10.014;2023-07-29T12:51:54;2.10;;;1.88;;
29362;SDS011;16349;53.672;10.014;2023-07-29T12:54:22;2.60;;;1.67;;
29362;SDS011;16349;53.672;10.014;2023-07-29T12:56:48;1.40;;;1.30;;
29362;SDS011;16349;53.672;10.014;2023-07-29T12:59:15;1.98;;;1.80;;
29362;SDS011;16349;53.672;10.014;2023-07-29T13:01:42;1.80;;;1.70;;
29362;SDS011;16349;53.672;10.014;2023-07-29T13:04:10;2.03;;;1.70;;
29362;SDS011;16349;53.672;10.014;2023-07-29T13:06:37;1.90;;;1.80;;
29362;SDS011;16349;53.672;10.014;2023-07-29T13:09:05;1.60;;;1.50;;
29362;SDS011;16349;53.672;10.014;2023-07-29T13:11:32;1.33;;;1.20;;
29362;SDS011;16349;53.672;10.014;2023-07-29T13:13:59;1.50;;;1.40;;
29362;SDS011;16349;53.672;10.014;2023-07-29T13:16:26;1.40;;;1.30;;
29362;SDS011;16349;53.672;10.014;2023-07-29T13:18:54;1.63;;;1.15;;
29362;SDS011;16349;53.672;10.014;2023-07-29T13:21:22;1.58;;;1.48;;
29362;SDS011;16349;53.672;10.014;2023-07-29T13:23:49;1.77;;;1.30;;
29362;SDS011;16349;53.672;10.014;2023-07-29T13:26:17;1.33;;;1.25;;
29362;SDS011;16349;53.672;10.014;2023-07-29T13:28:44;1.58;;;1.40;;
29362;SDS011;16349;53.672;10.014;2023-07-29T13:31:11;1.40;;;1.30;;
29362;SDS011;16349;53.672;10.014;2023-07-29T13:33:39;2.00;;;1.25;;
29362;SDS011;16349;53.672;10.014;2023-07-29T13:36:05;1.58;;;1.38;;
29362;SDS011;16349;53.672;10.014;2023-07-29T13:38:34;1.58;;;1.48;;
29362;SDS011;16349;53.672;10.014;2023-07-29T13:41:01;1.25;;;1.10;;
29362;SDS011;16349;53.672;10.014;2023-07-29T13:43:28;1.52;;;1.40;;
29362;SDS011;16349;53.672;10.014;2023-07-29T13:45:55;2.00;;;1.30;;
29362;SDS011;16349;53.672;10.014;2023-07-29T13:48:22;1.95;;;1.30;;
29362;SDS011;16349;53.672;10.014;2023-07-29T13:50:49;2.72;;;1.80;;
29362;SDS011;16349;53.672;10.014;2023-07-29T13:53:17;3.80;;;1.63;;
29362;SDS011;16349;53.672;10.014;2023-07-29T13:55:46;2.15;;;1.67;;
29362;SDS011;16349;53.672;10.014;2023-07-29T13:58:13;1.45;;;1.35;;
29362;SDS011;16349;53.672;10.014;2023-07-29T14:00:39;2.20;;;1.83;;
29362;SDS011;16349;53.672;10.014;2023-07-29T14:03:06;1.83;;;1.55;;
29362;SDS011;16349;53.672;10.014;2023-07-29T14:05:33;1.77;;;1.67;;
29362;SDS011;16349;53.672;10.014;2023-07-29T14:08:00;1.67;;;1.40;;
29362;SDS011;16349;53.672;10.014;2023-07-29T14:10:27;2.13;;;1.50;;
29362;SDS011;16349;53.672;10.014;2023-07-29T14:12:56;2.17;;;1.33;;
29362;SDS011;16349;53.672;10.014;2023-07-29T14:15:23;2.78;;;1.30;;
29362;SDS011;16349;53.672;10.014;2023-07-29T14:17:58;1.30;;;1.20;;
29362;SDS011;16349;53.672;10.014;2023-07-29T14:20:27;1.77;;;1.67;;
29362;SDS011;16349;53.672;10.014;2023-07-29T14:22:55;3.08;;;1.33;;
29362;SDS011;16349;53.672;10.014;2023-07-29T14:25:22;1.20;;;1.10;;
29362;SDS011;16349;53.672;10.014;2023-07-29T14:27:49;1.80;;;1.45;;
29362;SDS011;16349;53.672;10.014;2023-07-29T14:30:18;1.33;;;1.33;;
29362;SDS011;16349;53.672;10.014;2023-07-29T14:32:45;2.92;;;1.48;;
29362;SDS011;16349;53.672;10.014;2023-07-29T14:35:12;2.17;;;1.42;;
29362;SDS011;16349;53.672;10.014;2023-07-29T14:37:39;1.95;;;1.70;;
29362;SDS011;16349;53.672;10.014;2023-07-29T14:40:06;1.10;;;1.02;;